createdAt,value
2023-05-25T00:00:27.820Z,6.20
2023-05-25T00:02:55.330Z,5.03
2023-05-25T00:05:22.198Z,7.03
2023-05-25T00:07:48.970Z,6.33
2023-05-25T00:10:15.766Z,5.33
2023-05-25T00:12:42.622Z,5.07
2023-05-25T00:15:09.951Z,7.80
2023-05-25T00:17:37.416Z,4.87
2023-05-25T00:20:07.738Z,5.67
2023-05-25T00:22:37.726Z,6.13
2023-05-25T00:25:06.339Z,5.30
2023-05-25T00:27:33.190Z,5.53
2023-05-25T00:30:00.045Z,6.50
2023-05-25T00:32:26.885Z,6.87
2023-05-25T00:34:54.890Z,7.17
2023-05-25T00:37:21.875Z,6.40
2023-05-25T00:39:48.769Z,6.27
2023-05-25T00:42:16.372Z,6.63
2023-05-25T00:44:43.419Z,6.90
2023-05-25T00:47:11.852Z,5.70
2023-05-25T00:49:38.927Z,5.60
2023-05-25T00:52:06.253Z,6.37
2023-05-25T00:54:35.237Z,6.67
2023-05-25T00:57:06.664Z,6.00
2023-05-25T00:59:41.516Z,5.73
2023-05-25T01:02:10.986Z,5.77
2023-05-25T01:04:49.563Z,5.87
2023-05-25T01:07:23.447Z,5.97
2023-05-25T01:09:58.434Z,6.93
2023-05-25T01:12:28.954Z,6.07
2023-05-25T01:14:56.794Z,6.10
2023-05-25T01:17:23.584Z,5.47
2023-05-25T01:20:08.328Z,5.70
2023-05-25T01:22:45.463Z,6.03
2023-05-25T01:25:22.325Z,5.07
2023-05-25T01:27:57.132Z,6.33
2023-05-25T01:30:27.380Z,5.43
2023-05-25T01:32:55.389Z,5.77
2023-05-25T01:35:24.598Z,6.80
2023-05-25T01:37:52.457Z,6.10
2023-05-25T01:40:19.347Z,6.10
2023-05-25T01:42:46.165Z,6.13
2023-05-25T01:45:14.528Z,6.30
2023-05-25T01:47:54.084Z,4.80
2023-05-25T01:50:48.738Z,5.90
2023-05-25T01:53:21.364Z,6.40
2023-05-25T01:55:54.937Z,6.23
2023-05-25T01:58:24.372Z,5.97
2023-05-25T02:00:51.703Z,5.23
2023-05-25T02:03:20.142Z,6.57
2023-05-25T02:05:47.802Z,5.77
2023-05-25T02:08:14.685Z,6.13
2023-05-25T02:10:41.526Z,5.50
2023-05-25T02:13:08.414Z,6.50
2023-05-25T02:15:35.293Z,6.90
2023-05-25T02:18:03.123Z,5.80
2023-05-25T02:20:30.089Z,5.97
2023-05-25T02:22:56.929Z,6.10
2023-05-25T02:25:23.758Z,5.90
2023-05-25T02:27:50.956Z,5.53
2023-05-25T02:30:17.766Z,6.33
2023-05-25T02:32:44.826Z,5.83
2023-05-25T02:35:11.804Z,6.70
2023-05-25T02:37:39.239Z,6.50
2023-05-25T02:40:06.530Z,5.40
2023-05-25T02:42:33.307Z,6.40
2023-05-25T02:45:00.149Z,7.07
2023-05-25T02:47:27.014Z,7.37
2023-05-25T02:49:53.909Z,6.10
2023-05-25T02:52:21.306Z,6.30
2023-05-25T02:54:48.073Z,7.57
2023-05-25T02:57:14.883Z,6.20
2023-05-25T02:59:41.782Z,5.47
2023-05-25T03:02:08.525Z,6.13
2023-05-25T03:04:38.014Z,6.30
2023-05-25T03:07:05.393Z,5.30
2023-05-25T03:09:32.294Z,6.13
2023-05-25T03:11:59.125Z,6.03
2023-05-25T03:14:26.067Z,4.70
2023-05-25T03:16:54.160Z,6.33
2023-05-25T03:19:21.487Z,5.33
2023-05-25T03:21:48.329Z,5.30
2023-05-25T03:24:15.324Z,5.23
2023-05-25T03:26:42.129Z,6.00
2023-05-25T03:29:09.004Z,5.87
2023-05-25T03:31:36.391Z,7.37
2023-05-25T03:34:04.129Z,6.20
2023-05-25T03:36:32.423Z,6.40
2023-05-25T03:38:59.319Z,6.93
2023-05-25T03:41:27.053Z,7.50
2023-05-25T03:43:54.094Z,5.70
2023-05-25T03:46:21.024Z,6.80
2023-05-25T03:48:47.897Z,6.60
2023-05-25T03:51:14.657Z,5.80
2023-05-25T03:53:41.504Z,6.33
2023-05-25T03:56:08.332Z,8.10
2023-05-25T03:58:35.118Z,7.47
2023-05-25T04:01:04.361Z,5.90
2023-05-25T04:03:33.089Z,6.47
2023-05-25T04:06:00.691Z,6.50
2023-05-25T04:08:28.990Z,6.00
2023-05-25T04:10:56.533Z,5.47
2023-05-25T04:13:23.301Z,6.50
2023-05-25T04:15:51.398Z,5.80
2023-05-25T04:18:19.156Z,6.07
2023-05-25T04:20:46.759Z,6.37
2023-05-25T04:23:13.578Z,5.30
2023-05-25T04:25:42.166Z,6.77
2023-05-25T04:28:10.270Z,4.13
2023-05-25T04:30:37.146Z,5.00
2023-05-25T04:33:04.182Z,6.57
2023-05-25T04:35:32.053Z,6.00
2023-05-25T04:38:02.708Z,5.93
2023-05-25T04:40:30.156Z,6.07
2023-05-25T04:42:57.138Z,6.90
2023-05-25T04:45:24.040Z,6.90
2023-05-25T04:47:51.172Z,6.87
2023-05-25T04:50:18.193Z,6.63
2023-05-25T04:52:45.011Z,7.17
2023-05-25T04:55:12.486Z,6.50
2023-05-25T04:57:39.435Z,6.20
2023-05-25T05:00:09.732Z,6.30
2023-05-25T05:02:36.645Z,6.83
2023-05-25T05:05:03.898Z,8.40
2023-05-25T05:07:31.745Z,7.90
2023-05-25T05:09:58.748Z,7.40
2023-05-25T05:12:25.684Z,7.03
2023-05-25T05:14:53.175Z,7.13
2023-05-25T05:17:19.997Z,8.17
2023-05-25T05:19:46.833Z,8.17
2023-05-25T05:22:15.878Z,8.47
2023-05-25T05:24:42.859Z,7.60
2023-05-25T05:27:10.680Z,8.50
2023-05-25T05:29:37.538Z,7.17
2023-05-25T05:32:04.609Z,10.30
2023-05-25T05:34:31.554Z,11.30
2023-05-25T05:37:00.089Z,12.53
2023-05-25T05:39:27.855Z,11.07
2023-05-25T05:41:55.468Z,10.17
2023-05-25T05:44:24.639Z,11.90
2023-05-25T05:46:53.132Z,10.43
2023-05-25T05:49:20.023Z,10.80
2023-05-25T05:51:46.875Z,11.10
2023-05-25T05:54:13.668Z,11.40
2023-05-25T05:56:40.473Z,12.30
2023-05-25T05:59:07.330Z,11.50
2023-05-25T06:01:34.227Z,12.00
2023-05-25T06:04:01.054Z,9.50
2023-05-25T06:06:28.590Z,11.33
2023-05-25T06:08:55.560Z,12.07
2023-05-25T06:11:22.365Z,10.80
2023-05-25T06:13:49.147Z,10.37
2023-05-25T06:16:16.241Z,11.07
2023-05-25T06:18:43.054Z,11.53
2023-05-25T06:21:10.782Z,10.47
2023-05-25T06:23:38.806Z,9.37
2023-05-25T06:26:07.473Z,10.90
2023-05-25T06:28:34.410Z,9.43
2023-05-25T06:31:01.229Z,9.87
2023-05-25T06:33:28.002Z,10.90
2023-05-25T06:35:58.589Z,11.40
2023-05-25T06:38:25.413Z,10.60
2023-05-25T06:40:52.281Z,12.97
2023-05-25T06:43:19.206Z,12.07
2023-05-25T06:45:46.418Z,12.00
2023-05-25T06:48:13.554Z,10.83
2023-05-25T06:50:40.408Z,11.97
2023-05-25T06:53:07.257Z,11.87
2023-05-25T06:55:34.125Z,12.53
2023-05-25T06:58:00.878Z,10.80
2023-05-25T07:00:27.725Z,11.40
2023-05-25T07:02:54.569Z,14.80
2023-05-25T07:05:21.965Z,11.27
2023-05-25T07:07:48.935Z,9.70
2023-05-25T07:10:15.771Z,9.10
2023-05-25T07:12:42.627Z,10.40
2023-05-25T07:15:10.440Z,10.23
2023-05-25T07:17:37.388Z,9.07
2023-05-25T07:20:06.364Z,8.10
2023-05-25T07:22:33.328Z,8.93
2023-05-25T07:25:00.265Z,7.73
2023-05-25T07:27:27.081Z,9.27
2023-05-25T07:29:53.900Z,9.13
2023-05-25T07:32:21.005Z,8.20
2023-05-25T07:34:47.868Z,10.87
2023-05-25T07:37:14.694Z,8.73
2023-05-25T07:39:41.584Z,8.30
2023-05-25T07:42:08.423Z,7.70
2023-05-25T07:44:35.286Z,7.80
2023-05-25T07:47:02.192Z,7.67
2023-05-25T07:49:29.000Z,9.10
2023-05-25T07:51:55.890Z,8.40
2023-05-25T07:54:22.716Z,9.13
2023-05-25T07:56:49.650Z,8.77
2023-05-25T07:59:16.431Z,8.35
2023-05-25T08:01:43.276Z,7.27
2023-05-25T08:04:10.355Z,9.00
2023-05-25T08:06:37.252Z,7.60
2023-05-25T08:09:04.954Z,7.80
2023-05-25T08:11:31.798Z,8.17
2023-05-25T08:14:00.108Z,7.57
2023-05-25T08:16:27.060Z,8.30
2023-05-25T08:18:53.878Z,10.87
2023-05-25T08:21:20.657Z,10.87
2023-05-25T08:23:47.929Z,9.63
2023-05-25T08:26:34.152Z,10.70
2023-05-25T08:29:02.516Z,11.10
2023-05-25T08:31:29.390Z,9.90
2023-05-25T08:33:56.327Z,10.07
2023-05-25T08:36:23.243Z,9.53
2023-05-25T08:38:50.046Z,10.00
2023-05-25T08:41:16.986Z,10.53
2023-05-25T08:43:43.934Z,11.70
2023-05-25T08:46:10.781Z,9.20
2023-05-25T08:48:42.517Z,8.87
2023-05-25T08:51:12.058Z,8.53
2023-05-25T08:53:41.128Z,7.10
2023-05-25T08:56:14.328Z,8.43
2023-05-25T08:58:58.118Z,7.33
2023-05-25T09:01:28.808Z,6.70
2023-05-25T09:03:57.231Z,7.93
2023-05-25T09:06:27.047Z,8.27
2023-05-25T09:08:54.980Z,13.07
2023-05-25T09:11:36.104Z,14.23
2023-05-25T09:14:07.930Z,12.77
2023-05-25T09:16:37.618Z,15.10
2023-05-25T09:19:04.521Z,13.70
2023-05-25T09:21:31.662Z,14.90
2023-05-25T09:24:00.288Z,15.23
2023-05-25T09:26:27.652Z,15.43
2023-05-25T09:28:54.486Z,15.30
2023-05-25T09:31:24.112Z,16.00
2023-05-25T09:33:55.532Z,17.43
2023-05-25T09:36:23.245Z,16.13
2023-05-25T09:38:53.857Z,14.47
2023-05-25T09:41:21.884Z,11.73
2023-05-25T09:44:02.040Z,11.83
2023-05-25T09:46:39.582Z,13.90
2023-05-25T09:49:08.912Z,15.20
2023-05-25T09:51:37.088Z,13.07
2023-05-25T09:54:05.058Z,13.47
2023-05-25T09:56:33.532Z,16.30
2023-05-25T09:59:01.274Z,13.30
2023-05-25T10:01:28.871Z,13.27
2023-05-25T10:04:05.223Z,10.40
2023-05-25T10:06:33.686Z,8.13
2023-05-25T10:09:01.448Z,11.83
2023-05-25T10:11:29.593Z,9.13
2023-05-25T10:13:56.862Z,10.60
2023-05-25T10:16:29.698Z,8.67
2023-05-25T10:19:22.146Z,12.83
2023-05-25T10:22:05.368Z,11.40
2023-05-25T10:24:39.010Z,15.33
2023-05-25T10:27:22.525Z,14.63
2023-05-25T10:29:54.318Z,11.90
2023-05-25T10:32:22.550Z,10.97
2023-05-25T10:34:52.262Z,10.60
2023-05-25T10:37:19.060Z,10.00
2023-05-25T10:39:46.639Z,13.13
2023-05-25T10:42:13.569Z,12.47
2023-05-25T10:44:43.985Z,10.53
2023-05-25T10:47:11.994Z,10.20
2023-05-25T10:49:58.975Z,9.90
2023-05-25T10:52:30.892Z,9.27
2023-05-25T10:55:01.700Z,7.83
2023-05-25T10:57:28.677Z,7.50
2023-05-25T11:00:06.694Z,8.00
2023-05-25T11:02:55.952Z,7.00
2023-05-25T11:05:26.202Z,7.93
2023-05-25T11:07:54.643Z,6.93
2023-05-25T11:10:44.352Z,7.73
2023-05-25T11:13:41.353Z,8.87
2023-05-25T11:16:22.289Z,8.70
2023-05-25T11:18:57.829Z,9.73
2023-05-25T11:21:27.545Z,9.63
2023-05-25T11:24:08.559Z,8.60
2023-05-25T11:26:35.937Z,9.30
2023-05-25T11:29:14.433Z,9.07
2023-05-25T11:31:43.694Z,8.47
2023-05-25T11:34:12.355Z,8.07
2023-05-25T11:36:39.642Z,7.57
2023-05-25T11:39:17.110Z,8.47
2023-05-25T11:41:52.382Z,8.13
2023-05-25T11:44:33.673Z,8.00
2023-05-25T11:47:09.023Z,6.90
2023-05-25T11:49:41.739Z,7.97
2023-05-25T11:52:08.928Z,7.90
2023-05-25T11:54:36.173Z,7.80
2023-05-25T11:57:03.842Z,8.20
2023-05-25T11:59:32.474Z,8.03
2023-05-25T12:02:04.116Z,7.77
2023-05-25T12:04:35.390Z,9.40
2023-05-25T12:07:07.047Z,9.70
2023-05-25T12:09:35.129Z,12.30
2023-05-25T12:12:04.307Z,12.63
2023-05-25T12:14:32.853Z,13.40
2023-05-25T12:16:59.908Z,12.50
2023-05-25T12:19:27.103Z,10.07
2023-05-25T12:21:54.097Z,9.20
2023-05-25T12:24:20.947Z,9.57
2023-05-25T12:27:01.441Z,11.33
2023-05-25T12:29:29.169Z,10.20
2023-05-25T12:32:04.005Z,9.60
2023-05-25T12:34:31.180Z,8.17
2023-05-25T12:36:57.973Z,8.53
2023-05-25T12:39:31.055Z,8.93
2023-05-25T12:41:59.439Z,9.77
2023-05-25T12:44:46.526Z,9.93
2023-05-25T12:47:22.412Z,8.63
2023-05-25T12:49:51.935Z,8.73
2023-05-25T12:52:38.185Z,8.63
2023-05-25T12:55:31.035Z,7.80
2023-05-25T12:58:06.969Z,7.60
2023-05-25T13:00:38.418Z,8.07
2023-05-25T13:03:09.621Z,6.97
2023-05-25T13:05:38.020Z,7.27
2023-05-25T13:08:06.143Z,7.27
2023-05-25T13:10:33.396Z,5.83
2023-05-25T13:13:01.017Z,7.47
2023-05-25T13:15:28.141Z,7.10
2023-05-25T13:17:58.333Z,6.67
2023-05-25T13:20:27.013Z,6.80
2023-05-25T13:22:55.876Z,7.80
2023-05-25T13:25:23.113Z,9.23
2023-05-25T13:27:52.579Z,6.30
2023-05-25T13:30:22.780Z,8.97
2023-05-25T13:32:52.068Z,8.07
2023-05-25T13:35:24.117Z,8.17
2023-05-25T13:37:51.383Z,7.10
2023-05-25T13:40:19.041Z,6.10
2023-05-25T13:42:45.965Z,6.13
2023-05-25T13:45:13.763Z,7.20
2023-05-25T13:47:43.791Z,6.30
2023-05-25T13:50:11.284Z,7.10
2023-05-25T13:52:38.079Z,6.50
2023-05-25T13:55:05.308Z,6.43
2023-05-25T13:57:32.051Z,7.70
2023-05-25T13:59:58.876Z,14.43
2023-05-25T14:02:25.783Z,6.70
2023-05-25T14:04:52.682Z,7.20
2023-05-25T14:07:19.467Z,5.30
2023-05-25T14:09:46.657Z,4.90
2023-05-25T14:12:14.357Z,7.43
2023-05-25T14:14:41.292Z,6.10
2023-05-25T14:17:08.102Z,5.87
2023-05-25T14:19:35.350Z,5.43
2023-05-25T14:24:32.030Z,5.80
2023-05-25T14:26:59.183Z,6.27
2023-05-25T14:29:26.043Z,5.30
2023-05-25T14:31:53.056Z,5.43
2023-05-25T14:34:19.967Z,7.70
2023-05-25T14:36:46.816Z,5.70
2023-05-25T14:39:16.410Z,7.10
2023-05-25T14:41:44.230Z,6.10
2023-05-25T14:44:11.238Z,5.43
2023-05-25T14:46:38.095Z,5.97
2023-05-25T14:49:04.994Z,6.90
2023-05-25T14:51:31.844Z,5.77
2023-05-25T14:54:00.454Z,5.53
2023-05-25T14:56:28.491Z,4.47
2023-05-25T14:58:55.255Z,5.37
2023-05-25T15:01:25.026Z,4.97
2023-05-25T15:03:52.579Z,5.00
2023-05-25T15:06:19.736Z,5.13
2023-05-25T15:08:46.801Z,5.40
2023-05-25T15:11:13.783Z,5.10
2023-05-25T15:13:41.026Z,4.70
2023-05-25T15:16:11.819Z,5.10
2023-05-25T15:18:38.972Z,5.20
2023-05-25T15:21:06.270Z,5.10
2023-05-25T15:23:33.346Z,5.40
2023-05-25T15:26:04.195Z,4.50
2023-05-25T15:28:31.554Z,4.23
2023-05-25T15:31:00.694Z,5.80
2023-05-25T15:33:43.678Z,4.63
2023-05-25T15:36:16.380Z,4.40
2023-05-25T15:38:44.426Z,4.83
2023-05-25T15:41:15.332Z,5.77
2023-05-25T15:43:42.258Z,5.40
2023-05-25T15:46:09.109Z,4.37
2023-05-25T15:48:35.960Z,5.17
2023-05-25T15:51:02.848Z,4.20
2023-05-25T15:53:30.389Z,5.03
2023-05-25T15:55:57.410Z,4.70
2023-05-25T15:58:24.228Z,5.23
2023-05-25T16:00:51.041Z,4.70
2023-05-25T16:03:17.976Z,4.13
2023-05-25T16:05:44.944Z,4.33
2023-05-25T16:08:13.927Z,4.10
2023-05-25T16:10:40.753Z,4.63
2023-05-25T16:13:07.612Z,4.70
2023-05-25T16:15:34.570Z,4.20
2023-05-25T16:18:01.398Z,5.30
2023-05-25T16:20:28.240Z,3.83
2023-05-25T16:22:55.062Z,4.67
2023-05-25T16:25:21.977Z,4.40
2023-05-25T16:27:48.802Z,4.17
2023-05-25T16:30:15.869Z,4.60
2023-05-25T16:32:42.750Z,4.60
2023-05-25T16:35:09.819Z,4.70
2023-05-25T16:37:36.571Z,4.60
2023-05-25T16:40:03.393Z,4.20
2023-05-25T16:42:30.223Z,4.53
2023-05-25T16:44:57.028Z,3.80
2023-05-25T16:47:23.785Z,4.53
2023-05-25T16:49:50.655Z,4.07
2023-05-25T16:52:18.166Z,4.73
2023-05-25T16:54:45.065Z,4.33
2023-05-25T16:57:12.141Z,4.60
2023-05-25T16:59:39.342Z,3.83
2023-05-25T17:02:06.617Z,4.10
2023-05-25T17:04:33.492Z,4.57
2023-05-25T17:07:00.364Z,4.50
2023-05-25T17:09:27.171Z,4.63
2023-05-25T17:11:54.229Z,4.10
2023-05-25T17:14:21.559Z,4.10
2023-05-25T17:16:48.385Z,4.40
2023-05-25T17:19:15.297Z,4.83
2023-05-25T17:21:42.460Z,5.40
2023-05-25T17:24:09.369Z,5.00
2023-05-25T17:26:36.217Z,4.77
2023-05-25T17:29:03.044Z,4.43
2023-05-25T17:31:29.973Z,4.97
2023-05-25T17:33:56.871Z,4.20
2023-05-25T17:36:23.947Z,4.87
2023-05-25T17:38:50.843Z,4.30
2023-05-25T17:41:17.641Z,3.67
2023-05-25T17:43:44.419Z,4.97
2023-05-25T17:46:11.359Z,4.33
2023-05-25T17:48:38.327Z,4.47
2023-05-25T17:51:05.330Z,4.73
2023-05-25T17:53:32.252Z,4.07
2023-05-25T17:55:59.296Z,4.60
2023-05-25T17:58:26.166Z,5.87
2023-05-25T18:00:53.085Z,6.47
2023-05-25T18:03:19.968Z,4.50
2023-05-25T18:05:47.109Z,4.57
2023-05-25T18:08:13.952Z,5.77
2023-05-25T18:10:40.803Z,4.70
2023-05-25T18:13:07.571Z,4.40
2023-05-25T18:15:34.561Z,4.37
2023-05-25T18:18:03.622Z,4.47
2023-05-25T18:20:30.442Z,3.93
2023-05-25T18:22:58.726Z,4.10
2023-05-25T18:25:26.148Z,4.00
2023-05-25T18:27:52.968Z,3.97
2023-05-25T18:30:19.763Z,3.80
2023-05-25T18:32:46.616Z,4.40
2023-05-25T18:35:13.682Z,3.70
2023-05-25T18:37:41.240Z,4.93
2023-05-25T18:40:08.769Z,4.73
2023-05-25T18:42:35.656Z,4.27
2023-05-25T18:45:02.695Z,4.80
2023-05-25T18:47:29.530Z,4.67
2023-05-25T18:49:56.495Z,4.03
2023-05-25T18:52:23.421Z,3.73
2023-05-25T18:54:50.459Z,4.37
2023-05-25T18:57:17.302Z,3.60
2023-05-25T18:59:44.115Z,3.87
2023-05-25T19:02:11.011Z,4.43
2023-05-25T19:04:37.965Z,3.97
2023-05-25T19:07:04.997Z,4.20
2023-05-25T19:09:31.932Z,4.10
2023-05-25T19:11:58.776Z,4.20
2023-05-25T19:14:25.713Z,4.87
2023-05-25T19:16:52.677Z,3.20
2023-05-25T19:19:19.567Z,4.53
2023-05-25T19:21:46.600Z,4.70
2023-05-25T19:24:13.373Z,4.50
2023-05-25T19:26:40.446Z,4.63
2023-05-25T19:29:07.291Z,4.97
2023-05-25T19:31:34.225Z,4.17
2023-05-25T19:34:01.138Z,4.20
2023-05-25T19:36:28.123Z,4.20
2023-05-25T19:38:54.977Z,4.70
2023-05-25T19:41:21.800Z,5.50
2023-05-25T19:43:48.637Z,4.20
2023-05-25T19:46:15.529Z,4.23
2023-05-25T19:48:42.585Z,4.90
2023-05-25T19:51:09.534Z,4.90
2023-05-25T19:53:36.326Z,5.10
2023-05-25T19:56:03.473Z,4.40
2023-05-25T19:58:30.506Z,4.90
2023-05-25T20:00:57.553Z,5.03
2023-05-25T20:03:24.404Z,4.43
2023-05-25T20:05:51.251Z,6.07
2023-05-25T20:08:18.050Z,5.87
2023-05-25T20:10:45.194Z,5.07
2023-05-25T20:15:39.406Z,5.23
2023-05-25T20:18:06.313Z,5.70
2023-05-25T20:20:33.147Z,5.87
2023-05-25T20:22:59.976Z,5.30
2023-05-25T20:25:26.763Z,4.73
2023-05-25T20:27:53.635Z,4.73
2023-05-25T20:30:20.771Z,4.37
2023-05-25T20:32:47.667Z,4.70
2023-05-25T20:35:17.356Z,5.20
2023-05-25T20:37:44.217Z,4.40
2023-05-25T20:40:11.210Z,4.70
2023-05-25T20:42:37.994Z,4.30
2023-05-25T20:45:05.321Z,5.10
2023-05-25T20:47:32.243Z,4.70
2023-05-25T20:49:59.127Z,4.97
2023-05-25T20:52:26.185Z,5.13
2023-05-25T20:54:53.063Z,6.07
2023-05-25T20:57:21.107Z,4.70
2023-05-25T20:59:48.826Z,4.40
2023-05-25T21:02:21.947Z,5.47
2023-05-25T21:04:48.802Z,5.43
2023-05-25T21:07:15.799Z,5.93
2023-05-25T21:09:42.623Z,5.27
2023-05-25T21:12:09.718Z,7.00
2023-05-25T21:14:36.853Z,5.60
2023-05-25T21:17:03.831Z,6.27
2023-05-25T21:19:31.043Z,5.90
2023-05-25T21:21:57.933Z,6.10
2023-05-25T21:24:24.754Z,5.37
2023-05-25T21:26:51.725Z,6.27
2023-05-25T21:29:18.629Z,6.03
2023-05-25T21:31:45.461Z,6.67
2023-05-25T21:34:12.325Z,6.20
2023-05-25T21:36:39.167Z,6.70
2023-05-25T21:39:06.028Z,6.93
2023-05-25T21:41:32.803Z,6.13
2023-05-25T21:43:59.550Z,6.10
2023-05-25T21:46:26.482Z,6.10
2023-05-25T21:48:53.280Z,5.90
2023-05-25T21:51:20.085Z,6.03
2023-05-25T21:53:46.861Z,6.50
2023-05-25T21:56:13.752Z,5.50
2023-05-25T21:58:40.646Z,6.10
2023-05-25T22:01:07.576Z,5.50
2023-05-25T22:03:34.543Z,6.47
2023-05-25T22:06:01.749Z,6.57
2023-05-25T22:08:28.619Z,6.40
2023-05-25T22:10:55.574Z,6.47
2023-05-25T22:13:22.378Z,6.57
2023-05-25T22:15:50.282Z,7.40
2023-05-25T22:18:17.088Z,6.07
2023-05-25T22:20:43.943Z,6.90
2023-05-25T22:23:12.081Z,5.80
2023-05-25T22:25:38.854Z,7.30
2023-05-25T22:28:05.758Z,6.70
2023-05-25T22:30:32.776Z,6.00
2023-05-25T22:32:59.691Z,5.63
2023-05-25T22:35:26.569Z,6.80
2023-05-25T22:37:53.401Z,6.30
2023-05-25T22:40:20.256Z,5.87
2023-05-25T22:42:50.298Z,6.20
2023-05-25T22:45:18.270Z,5.60
2023-05-25T22:47:45.120Z,7.70
2023-05-25T22:50:12.462Z,5.00
2023-05-25T22:52:41.220Z,5.30
2023-05-25T22:55:08.963Z,6.00
2023-05-25T22:57:36.222Z,6.73
2023-05-25T23:00:04.301Z,5.90
2023-05-25T23:02:31.196Z,5.50
2023-05-25T23:04:58.093Z,4.30
2023-05-25T23:07:24.942Z,5.30
2023-05-25T23:09:51.688Z,5.00
2023-05-25T23:12:18.471Z,6.40
2023-05-25T23:14:45.246Z,7.63
2023-05-25T23:17:12.026Z,6.87
2023-05-25T23:19:40.206Z,6.23
2023-05-25T23:22:07.067Z,6.30
2023-05-25T23:24:33.913Z,6.60
2023-05-25T23:27:00.793Z,5.83
2023-05-25T23:29:27.597Z,5.10
2023-05-25T23:31:54.527Z,7.20
2023-05-25T23:34:21.546Z,7.00
2023-05-25T23:36:48.648Z,6.23
2023-05-25T23:39:15.693Z,6.13
2023-05-25T23:41:42.460Z,5.40
2023-05-25T23:44:09.271Z,7.00
2023-05-25T23:46:36.245Z,6.13
2023-05-25T23:49:03.096Z,4.50
2023-05-25T23:51:30.779Z,6.23
2023-05-25T23:53:57.776Z,5.20
2023-05-25T23:56:24.558Z,5.00
2023-05-25T23:58:51.399Z,5.90
